createdAt,value
2019-05-02T03:32:30.931Z,95757.00
2019-05-02T03:37:44.841Z,95750.00
2019-05-02T03:42:47.681Z,95744.00
2019-05-02T03:47:51.273Z,95731.00
2019-05-02T03:52:54.553Z,95734.00
2019-05-02T03:57:57.282Z,95766.00
2019-05-02T04:03:02.139Z,95724.00
2019-05-02T04:08:04.463Z,95733.00
2019-05-02T04:13:09.134Z,95735.00
2019-05-02T04:23:38.057Z,95729.00
2019-05-02T04:28:45.555Z,95737.00
2019-05-02T04:33:56.894Z,95737.00
2019-05-02T04:39:15.600Z,95740.00
2019-05-02T04:44:20.194Z,95741.00
2019-05-02T04:49:53.930Z,95734.00
2019-05-02T04:55:08.209Z,95736.00
2019-05-02T05:06:12.060Z,95748.00
2019-05-02T05:11:21.312Z,95758.00
2019-05-02T05:16:21.748Z,95743.00
2019-05-02T05:21:25.024Z,95749.00
2019-05-02T05:26:34.018Z,95757.00
2019-05-02T05:31:38.247Z,95754.00
2019-05-02T05:36:52.355Z,95762.00
2019-05-02T05:42:04.195Z,95758.00
2019-05-02T05:58:52.547Z,95761.00
2019-05-02T06:03:57.835Z,95766.00
2019-05-02T06:09:01.335Z,95758.00
2019-05-02T06:14:05.954Z,95756.00
2019-05-02T06:36:39.557Z,95763.00
2019-05-02T06:41:42.196Z,95757.00
2019-05-02T06:46:45.323Z,95760.00
2019-05-02T06:52:13.842Z,95763.00
2019-05-02T06:57:19.170Z,95759.00
2019-05-02T07:02:20.787Z,95768.00
2019-05-02T07:07:24.793Z,95756.00
2019-05-02T07:12:34.264Z,95755.00
2019-05-02T07:17:40.164Z,95756.00
2019-05-02T07:23:03.728Z,95750.00
2019-05-02T07:28:09.414Z,95749.00
2019-05-02T07:33:14.020Z,95750.00
2019-05-02T07:38:33.804Z,95756.00
2019-05-02T08:07:27.171Z,95755.00
2019-05-02T08:18:37.433Z,95752.00
2019-05-02T08:23:47.545Z,95747.00
2019-05-02T08:29:15.983Z,95740.00
2019-05-02T08:34:31.506Z,95737.00
2019-05-02T08:39:41.744Z,95743.00
2019-05-02T08:45:05.185Z,95736.00
2019-05-02T08:55:34.922Z,95739.00
2019-05-02T09:00:48.288Z,95728.00
2019-05-02T09:06:05.238Z,95739.00
2019-05-02T09:10:58.024Z,95730.00
2019-05-02T09:16:03.589Z,95721.00
2019-05-02T09:21:31.468Z,95722.00
2019-05-02T09:26:36.124Z,95723.00
2019-05-02T09:31:36.746Z,95715.00
2019-05-02T09:36:46.711Z,95692.00
2019-05-02T09:41:49.180Z,95695.00
2019-05-02T09:47:05.435Z,95699.00
2019-05-02T09:52:25.902Z,95710.00
2019-05-02T09:57:28.792Z,95694.00
2019-05-02T10:02:32.521Z,95694.00
2019-05-02T10:07:37.277Z,95690.00
2019-05-02T10:12:46.739Z,95666.00
2019-05-02T10:17:49.341Z,95674.00
2019-05-02T10:22:52.971Z,95674.00
2019-05-02T10:27:56.004Z,95668.00
2019-05-02T10:32:59.796Z,95659.00
2019-05-02T10:38:19.266Z,95662.00
2019-05-02T10:43:18.789Z,95638.00
2019-05-02T10:48:28.032Z,95646.00
2019-05-02T10:53:39.980Z,95638.00
2019-05-02T10:58:42.642Z,95640.00
2019-05-02T11:03:47.577Z,95644.00
2019-05-02T11:08:52.481Z,95625.00
2019-05-02T11:14:06.851Z,95617.00
2019-05-02T11:19:13.021Z,95610.00
2019-05-02T11:24:17.459Z,95615.00
2019-05-02T11:29:19.924Z,95613.00
2019-05-02T11:34:22.367Z,95608.00
2019-05-02T11:39:32.894Z,95612.00
2019-05-02T11:44:41.896Z,95605.00
2019-05-02T11:49:46.883Z,95599.00
2019-05-02T11:54:48.934Z,95599.00
2019-05-02T11:59:52.141Z,95584.00
2019-05-02T12:04:55.636Z,95586.00
2019-05-02T12:09:58.142Z,95585.00
2019-05-02T12:15:02.470Z,95593.00
2019-05-02T12:20:05.232Z,95563.00
2019-05-02T12:25:07.837Z,95571.00
2019-05-02T12:30:11.782Z,95564.00
2019-05-02T12:35:14.458Z,95556.00
2019-05-02T12:40:17.011Z,95566.00
2019-05-02T12:45:21.939Z,95567.00
2019-05-02T12:50:24.429Z,95558.00
2019-05-02T12:55:27.243Z,95548.00
2019-05-02T13:00:32.025Z,95544.00
2019-05-02T13:05:34.691Z,95538.00
2019-05-02T13:11:01.823Z,95534.00
2019-05-02T13:16:01.636Z,95530.00
2019-05-02T13:21:08.003Z,95533.00
2019-05-02T13:26:19.133Z,95521.00
2019-05-02T13:37:16.915Z,95513.00
2019-05-02T13:42:21.848Z,95519.00
2019-05-02T13:47:32.507Z,95493.00
2019-05-02T13:52:35.664Z,95504.00
2019-05-02T13:57:46.881Z,95514.00
2019-05-02T14:02:47.444Z,95517.00
2019-05-02T14:07:55.644Z,95504.00
2019-05-02T14:12:58.680Z,95506.00
2019-05-02T14:18:02.461Z,95487.00
2019-05-02T14:23:07.371Z,95490.00
2019-05-02T14:28:09.723Z,95485.00
2019-05-02T14:33:17.299Z,95485.00
2019-05-02T14:38:19.687Z,95482.00
2019-05-02T14:43:46.208Z,95476.00
2019-05-02T14:48:45.586Z,95471.00
2019-05-02T14:53:47.905Z,95476.00
2019-05-02T14:58:52.596Z,95464.00
2019-05-02T15:03:58.369Z,95472.00
2019-05-02T15:08:58.575Z,95470.00
2019-05-02T15:14:02.996Z,95466.00
2019-05-02T15:19:06.052Z,95467.00
2019-05-02T15:24:08.414Z,95461.00
2019-05-02T15:29:12.291Z,95469.00
2019-05-02T15:34:46.235Z,95470.00
2019-05-02T15:44:46.803Z,95463.00
2019-05-02T15:49:50.311Z,95444.00
2019-05-02T15:54:59.921Z,95449.00
2019-05-02T15:59:57.274Z,95454.00
2019-05-02T16:05:02.333Z,95445.00
2019-05-02T16:10:05.382Z,95444.00
2019-05-02T16:15:13.514Z,95434.00
2019-05-02T16:20:19.633Z,95441.00
2019-05-02T16:25:24.486Z,95434.00
2019-05-02T16:30:26.473Z,95432.00
2019-05-02T16:35:30.470Z,95425.00
2019-05-02T16:40:34.892Z,95421.00
2019-05-02T16:45:37.318Z,95421.00
2019-05-02T16:50:39.639Z,95422.00
2019-05-02T16:55:43.633Z,95421.00
2019-05-02T17:00:46.223Z,95411.00
2019-05-02T17:05:49.728Z,95422.00
2019-05-02T17:10:57.118Z,95411.00
2019-05-02T17:16:06.922Z,95401.00
2019-05-02T17:21:04.671Z,95413.00
2019-05-02T17:26:07.110Z,95414.00
2019-05-02T17:31:18.808Z,95407.00
2019-05-02T17:36:14.869Z,95413.00
2019-05-02T17:41:17.703Z,95410.00
2019-05-02T17:46:23.672Z,95401.00
2019-05-02T17:51:37.872Z,95406.00
2019-05-02T17:56:42.026Z,95405.00
2019-05-02T18:01:45.425Z,95411.00
2019-05-02T18:06:52.343Z,95418.00
2019-05-02T18:11:52.398Z,95421.00
2019-05-02T18:16:55.703Z,95419.00
2019-05-02T18:22:03.669Z,95426.00
2019-05-02T18:27:03.568Z,95417.00
2019-05-02T18:32:06.053Z,95425.00
2019-05-02T18:37:08.622Z,95427.00
2019-05-02T18:42:11.993Z,95425.00
2019-05-02T18:47:20.106Z,95435.00
2019-05-02T18:52:19.209Z,95444.00
2019-05-02T18:57:25.854Z,95451.00
2019-05-02T19:02:32.820Z,95453.00
2019-05-02T19:07:35.672Z,95462.00
2019-05-02T19:12:35.735Z,95453.00
2019-05-02T19:17:40.372Z,95462.00
2019-05-02T19:22:51.842Z,95469.00
2019-05-02T19:27:59.336Z,95475.00
2019-05-02T19:33:03.717Z,95486.00
2019-05-02T19:38:06.211Z,95489.00
2019-05-02T19:43:08.920Z,95490.00
2019-05-02T19:48:13.824Z,95496.00
2019-05-02T19:53:18.266Z,95493.00
2019-05-02T19:58:19.999Z,95476.00
2019-05-02T20:03:56.745Z,95477.00
2019-05-02T20:14:47.670Z,95479.00
2019-05-02T20:20:05.504Z,95484.00
2019-05-02T20:25:04.037Z,95491.00
2019-05-02T20:30:08.708Z,95486.00
2019-05-02T20:41:23.711Z,95479.00
2019-05-02T20:46:33.883Z,95488.00
2019-05-02T20:51:36.566Z,95487.00
2019-05-02T20:56:39.155Z,95474.00
2019-05-02T21:01:42.920Z,95470.00
2019-05-02T21:12:58.652Z,95463.00
2019-05-02T21:18:11.615Z,95464.00
2019-05-02T21:23:42.001Z,95471.00
2019-05-02T21:39:51.895Z,95490.00
2019-05-02T21:50:52.414Z,95493.00
2019-05-02T22:02:15.343Z,95510.00
2019-05-02T22:07:49.416Z,95506.00
2019-05-02T22:13:19.359Z,95515.00
2019-05-02T22:29:33.994Z,95516.00
2019-05-02T22:40:55.218Z,95522.00
2019-05-02T22:45:57.675Z,95517.00
2019-05-02T22:51:00.075Z,95516.00
2019-05-02T22:56:47.534Z,95509.00
2019-05-02T23:02:22.583Z,95519.00
2019-05-02T23:07:24.984Z,95525.00
2019-05-02T23:18:26.265Z,95518.00
